METAR (acronimo di METeorological Air Report) è un messaggio meteo emesso nella maggior parte dei casi in ambito aeroportuale

UEEE - Yakutsk, Russia
Ultimo Aggiornamento: Domenica 27 Settembre 2020 18:30 CEST
Sereno
Sereno
 Wind from Sud
Vento: Sud 7 km/h
Temperatura: 9°C
Wind Chill: 8°C
Punto di Rugiada: 6°C
Umidità: 82%
Barometro: 997 hPa
Condizioni: Sereno
Visibilità: superiore a 10 km
2020/09/27 16:30 UEEE 271630Z 18002MPS CAVOK 09/06 Q0997 R23L/09//60 NOSIG RMK QFE739
UHWW - Vladivostok, Russia
Ultimo Aggiornamento: Domenica 27 Settembre 2020 18:30 CEST
Banchi di Nebbia, Parzialmente Nuvoloso
Banchi di Nebbia, Parzialmente Nuvoloso
 Wind from Est-Nord-Est
Vento: Est-Nord-Est 7 km/h
Temperatura: 10°C
Wind Chill: 9°C
Punto di Rugiada: 10°C
Umidità: 100%
Barometro: 1018 hPa
Condizioni: Banchi di Nebbia
Nuvole: Parzialmente Nuvoloso
Visibilità: 9 km
2020/09/27 16:30 UHWW 271630Z 07002MPS 9000 BCFG NSC 10/10 Q1018 R25L/0///70 NOSIG RMK QFE762
ZMUB - Ulan Bator, Mongolia
Ultimo Aggiornamento: Domenica 27 Settembre 2020 19:00 CEST
Parzialmente Nuvoloso
Parzialmente Nuvoloso
 Wind from varies
Vento: variabile 4 km/h
Temperatura: 0°C
Punto di Rugiada: -5°C
Umidità: 69%
Barometro: 1024 hPa
Nuvole: Parzialmente Nuvoloso
Visibilità: 10 km
Nuvole nel Dettaglio: Parzialmente Nuvoloso 3048 m
2020/09/27 17:00 ZMUB 271700Z VRB01MPS 9999 SCT100 M00/M05 Q1024 NOSIG RMK QFE660.1 70 NT
 
UTTT - Tashkent, Uzbekistan
Ultimo Aggiornamento: Domenica 27 Settembre 2020 18:30 CEST
Sereno
Sereno
 Wind from calm
Vento: Calma
Temperatura: 16°C
Punto di Rugiada: 2°C
Umidità: 39%
Barometro: 1016 hPa
Condizioni: Sereno
Visibilità: superiore a 10 km
2020/09/27 16:30 UTTT 271630Z 00000KT CAVOK 16/02 Q1016 R08R/CLRD70 NOSIG
OAKB - Kabul, Afghanistan
Ultimo Aggiornamento: Domenica 27 Settembre 2020 18:50 CEST
Sereno
Sereno
 Wind from Est-Nord-Est
Vento: Est-Nord-Est 13 km/h
Temperatura: 18°C
Punto di Rugiada: 7°C
Umidità: 49%
Barometro: 1018 hPa
Condizioni: Sereno
Visibilità: superiore a 10 km
2020/09/27 16:50 OAKB 271650Z 07007KT CAVOK 18/07 Q1018 RMK A3007 BLU BLU
OPIS - Islamabad, Pakistan
Ultimo Aggiornamento: Domenica 27 Settembre 2020 18:25 CEST
Parzialmente Nuvoloso
Parzialmente Nuvoloso
 Wind from Sud-Ovest
Vento: Sud-Ovest 9 km/h
Temperatura: 22°C
Punto di Rugiada: 18°C
Umidità: 78%
Barometro: 1008 hPa
Nuvole: Parzialmente Nuvoloso
Visibilità: 6 km
2020/09/27 16:25 OPIS 271625Z 23005KT 6000 NSC 22/18 Q1008 NOSIG
 
ZBAA - Pechino, Cina
Ultimo Aggiornamento: Domenica 27 Settembre 2020 18:30 CEST
Parzialmente Nuvoloso
Parzialmente Nuvoloso
 Wind from Est-Sud-Est
Vento: Est-Sud-Est 7 km/h
Temperatura: 16°C
Punto di Rugiada: 15°C
Umidità: 94%
Barometro: 1016 hPa
Nuvole: Parzialmente Nuvoloso
Visibilità: 8 km
2020/09/27 16:30 ZBAA 271630Z 11002MPS 8000 NSC 16/15 Q1016 NOSIG
VHHH - Pechino, Cina
Ultimo Aggiornamento: Domenica 27 Settembre 2020 18:30 CEST
Parzialmente Nuvoloso
Parzialmente Nuvoloso
 Wind from Est
Vento: Est 20 km/h
Temperatura: 28°C
Heat Index: 32°C
Punto di Rugiada: 24°C
Umidità: 79%
Barometro: 1011 hPa
Nuvole: Parzialmente Nuvoloso
Visibilità: 10 km
Nuvole nel Dettaglio: Qualche Nuvola 610 m
Parzialmente Nuvoloso 1372 m
2020/09/27 16:30 VHHH 271630Z 09011KT 9999 FEW020 SCT045 28/24 Q1011 NOSIG
RKSI - Seul-Incheon, Corea del Sud
Ultimo Aggiornamento: Domenica 27 Settembre 2020 18:30 CEST
Sereno
Sereno
 Wind from Est
Vento: Est 2 km/h
Temperatura: 17°C
Punto di Rugiada: 13°C
Umidità: 77%
Barometro: 1018 hPa
Condizioni: Sereno
Visibilità: superiore a 10 km
2020/09/27 16:30 RKSI 271630Z 09001KT CAVOK 17/13 Q1018 NOSIG
 
RJTT - Tokyo-Haneda, Japan
Ultimo Aggiornamento: Domenica 27 Settembre 2020 18:30 CEST
Prevalentemente Nuvoloso
Prevalentemente Nuvoloso
 Wind from Nord-Ovest
Vento: Nord-Ovest 4 km/h
Temperatura: 20°C
Punto di Rugiada: 19°C
Umidità: 94%
Barometro: 1010 hPa
Nuvole: Prevalentemente Nuvoloso
Visibilità: 10 km
Nuvole nel Dettaglio: Qualche Nuvola 305 m
Prevalentemente Nuvoloso 3048 m
2020/09/27 16:30 RJTT 271630Z 31002KT 9999 FEW010 BKN100 20/19 Q1010 NOSIG RMK 1CU010 5AC100 A2984
OIII - Tehran, Iran
Ultimo Aggiornamento: Domenica 27 Settembre 2020 18:30 CEST
Parzialmente Nuvoloso
Parzialmente Nuvoloso
 Wind from Ovest
Vento: Ovest 11 km/h
Temperatura: 28°C
Punto di Rugiada: -3°C
Umidità: 13%
Barometro: 1015 hPa
Nuvole: Parzialmente Nuvoloso
Visibilità: 10 km
Nuvole nel Dettaglio: Parzialmente Nuvoloso 1219 m
2020/09/27 16:30 OIII 271630Z 27006KT 9999 SCT040 28/M03 Q1015 A2997
ORBI - Baghdad, Iraq
Ultimo Aggiornamento: Domenica 27 Settembre 2020 18:00 CEST
Sereno
Sereno
 Wind from Ovest
Vento: Ovest 17 km/h
Temperatura: 33°C
Punto di Rugiada: 13°C
Umidità: 30%
Barometro: 1008 hPa
Condizioni: Sereno
Visibilità: superiore a 10 km
2020/09/27 16:00 ORBI 271600Z 27009KT CAVOK 33/13 Q1008 NOSIG
 
OKBK - Kuwait City, Kuwait
Ultimo Aggiornamento: Domenica 27 Settembre 2020 18:00 CEST
Sereno
Sereno
 Wind from Nord-Nord-Ovest
Vento: Nord-Nord-Ovest 22 km/h
Temperatura: 40°C
Punto di Rugiada: 7°C
Umidità: 13%
Barometro: 1005 hPa
Nuvole: Sereno
Visibilità: 7 km
2020/09/27 16:00 OKBK 271600Z 34012KT 7000 SKC 40/07 Q1005 NOSIG
OMDB - Dubai, United Arab Emirates
Ultimo Aggiornamento: Domenica 27 Settembre 2020 18:00 CEST
Sereno
Sereno
 Wind from Nord-Ovest
Vento: Nord-Ovest 26 km/h
Temperatura: 33°C
Heat Index: 40°C
Punto di Rugiada: 25°C
Umidità: 63%
Barometro: 1005 hPa
Condizioni: Sereno
Visibilità: superiore a 10 km
2020/09/27 16:00 OMDB 271600Z 32014KT CAVOK 33/25 Q1005 NOSIG
VIDP - New Delhi, India
Ultimo Aggiornamento: Domenica 27 Settembre 2020 18:30 CEST
Foschia, Qualche Nuvola
Foschia, Qualche Nuvola
 Wind from calm
Vento: Calma
Temperatura: 28°C
Heat Index: 30°C
Punto di Rugiada: 21°C
Umidità: 66%
Barometro: 1007 hPa
Condizioni: Foschia
Nuvole: Qualche Nuvola
Visibilità: 3 km
Nuvole nel Dettaglio: Qualche Nuvola 3048 m
2020/09/27 16:30 VIDP 271630Z 00000KT 3200 HZ FEW100 28/21 Q1007 NOSIG
 
VVNB - Hanoi, Vietnam
Ultimo Aggiornamento: Domenica 27 Settembre 2020 18:30 CEST
Prevalentemente Nuvoloso
Prevalentemente Nuvoloso
 Wind from Nord-Est
Vento: Nord-Est 9 km/h
Temperatura: 24°C
Punto di Rugiada: 23°C
Umidità: 94%
Barometro: 1010 hPa
Nuvole: Prevalentemente Nuvoloso
Visibilità: 8 km
Nuvole nel Dettaglio: Parzialmente Nuvoloso 244 m
Prevalentemente Nuvoloso 396 m
2020/09/27 16:30 VVNB 271630Z 04005KT 8000 SCT008 BKN013 24/23 Q1010 NOSIG
VVTS - Ho Chi Minh City, Vietnam
Ultimo Aggiornamento: Domenica 27 Settembre 2020 18:30 CEST
Prevalentemente Nuvoloso
Prevalentemente Nuvoloso
 Wind from Ovest-Sud-Ovest
Vento: Ovest-Sud-Ovest 7 km/h
Temperatura: 25°C
Punto di Rugiada: 25°C
Umidità: 100%
Barometro: 1007 hPa
Nuvole: Prevalentemente Nuvoloso
Visibilità: 10 km
Nuvole nel Dettaglio: Parzialmente Nuvoloso 457 m
Prevalentemente Nuvoloso 1524 m
2020/09/27 16:30 VVTS 271630Z 24004KT 9999 SCT015 BKN050 25/25 Q1007 NOSIG
RPLL - Manila, Philippines
Ultimo Aggiornamento: Domenica 27 Settembre 2020 18:00 CEST
Parzialmente Nuvoloso
Parzialmente Nuvoloso
 Wind from Sud-Ovest
Vento: Sud-Ovest 6 km/h
Temperatura: 28°C
Heat Index: 32°C
Punto di Rugiada: 25°C
Umidità: 84%
Barometro: 1011 hPa
Nuvole: Parzialmente Nuvoloso
Visibilità: 10 km
Nuvole nel Dettaglio: Qualche Nuvola 762 m
Parzialmente Nuvoloso 3048 m
2020/09/27 16:00 RPLL 271600Z 23003KT 200V260 9999 FEW025 SCT100 28/25 Q1011 NOSIG RMK A2985
 
WMKK - Kuala Lumpur, Malaysia
Ultimo Aggiornamento: Domenica 27 Settembre 2020 18:30 CEST
Qualche Nuvola
Qualche Nuvola
 Wind from varies
Vento: variabile 4 km/h
Temperatura: 26°C
Punto di Rugiada: 23°C
Umidità: 84%
Barometro: 1011 hPa
Nuvole: Qualche Nuvola
Visibilità: 10 km
Nuvole nel Dettaglio: Qualche Nuvola 914 m
2020/09/27 16:30 WMKK 271630Z VRB02KT 9999 FEW030 26/23 Q1011 NOSIG
WSSS - Singapore, Singapore
Ultimo Aggiornamento: Domenica 27 Settembre 2020 18:30 CEST
Prevalentemente Nuvoloso
Prevalentemente Nuvoloso
 Wind from varies
Vento: variabile 4 km/h
Temperatura: 27°C
Heat Index: 31°C
Punto di Rugiada: 24°C
Umidità: 84%
Barometro: 1011 hPa
Nuvole: Prevalentemente Nuvoloso
Visibilità: 10 km
Nuvole nel Dettaglio: Qualche Nuvola 549 m
Prevalentemente Nuvoloso 8534 m
2020/09/27 16:30 WSSS 271630Z VRB02KT 9999 FEW018 BKN280 27/24 Q1011 NOSIG
WBSB - Brunei, Brunei
Ultimo Aggiornamento: Domenica 27 Settembre 2020 18:30 CEST
Pioggia Leggera, Prevalentemente Nuvoloso
Pioggia Leggera, Prevalentemente Nuvoloso
 Wind from Sud
Vento: Sud 9 km/h
Temperatura: 26°C
Punto di Rugiada: 24°C
Umidità: 89%
Barometro: 1012 hPa
Condizioni: Pioggia Leggera
Nuvole: Prevalentemente Nuvoloso
Visibilità: 8 km
Nuvole nel Dettaglio: Qualche Nuvola 427 m
Prevalentemente Nuvoloso 4572 m
2020/09/27 16:30 WBSB 271630Z 19005KT 8000 -RA FEW014 BKN150 26/24 Q1012 NOSIG